メインページ
METAR-TAF:

METAR-TAF

空港 :

キング・アブドラアジズ飛行場

ダーラン, サウジアラビア

緯度: 26-16N, 経度: 050-09E, 海抜: 26m

現時点の気象観測

当レポートは43分前の05:00(UTC)に作成
北/北西の風 6kt
気温 22°C
湿度 50%
気圧 1013 hPa
視程10km以上
1,500メートル以下は雲なし、積乱雲なし

METAR: OEDR 210500Z 34006KT CAVOK 22/11 Q1013

時間: 08:43 (05:43 UTC)

予報

当レポートは2時間43分前の03:00(UTC)に作成
予報は21日の 06時(UTC)から 22日の 12時(UTC)まで有効
北西の風 8kt
視程10km以上
1,500メートル以下は雲なし、積乱雲なし
21日の 10時(UTC)から 21日の 12時(UTC)まで徐々に
北東の風 15kt
21日の 18時(UTC)から 21日の 20時(UTC)まで徐々に
変向風 3kt
22日の 00時(UTC)から 22日の 04時(UTC)まで一時的に
視程: 5000m

TAF: OEDR 210300Z 2106/2212 32008KT CAVOK BECMG 2110/2112 04015KT BECMG 2118/2120 VRB03KT TEMPO 2200/2204 5000 BR

4,000以上の空港の気象観測と天気予報(METAR報とTAF報)

利用可能な観測所は地図上に黄色い丸と赤い丸で示す。

丸の上にカーソルを重ねると観測所名を参照できる。

次にクリックすると気象観測と天気予報を参照できる。

マップの切り替え:黒色「×」印の緑ボタンをクリックして拡大、「-」印の緑ボタンをクリックして縮小、緑色の三角印をクリックして隣りの地図に切り替え


METAR-TAF: